sensor_id;sensor_type;location;lat;lon;timestamp;P1;durP1;ratioP1;P2;durP2;ratioP2
16579;SDS011;8402;51.466;6.806;2024-02-23T00:01:55;1.47;;;0.40;;
16579;SDS011;8402;51.466;6.806;2024-02-23T00:04:28;0.80;;;0.33;;
16579;SDS011;8402;51.466;6.806;2024-02-23T00:06:58;0.50;;;0.30;;
16579;SDS011;8402;51.466;6.806;2024-02-23T00:09:29;1.13;;;0.30;;
16579;SDS011;8402;51.466;6.806;2024-02-23T00:11:59;1.10;;;0.40;;
16579;SDS011;8402;51.466;6.806;2024-02-23T00:14:29;0.67;;;0.40;;
16579;SDS011;8402;51.466;6.806;2024-02-23T00:17:03;0.70;;;0.60;;
16579;SDS011;8402;51.466;6.806;2024-02-23T00:19:35;0.60;;;0.47;;
16579;SDS011;8402;51.466;6.806;2024-02-23T00:22:05;3.80;;;0.70;;
16579;SDS011;8402;51.466;6.806;2024-02-23T00:24:35;1.50;;;0.67;;
16579;SDS011;8402;51.466;6.806;2024-02-23T00:27:07;1.80;;;0.50;;
16579;SDS011;8402;51.466;6.806;2024-02-23T00:29:37;0.77;;;0.60;;
16579;SDS011;8402;51.466;6.806;2024-02-23T00:32:07;0.83;;;0.53;;
16579;SDS011;8402;51.466;6.806;2024-02-23T00:34:39;1.27;;;0.87;;
16579;SDS011;8402;51.466;6.806;2024-02-23T00:37:09;1.10;;;1.00;;
16579;SDS011;8402;51.466;6.806;2024-02-23T00:39:39;0.57;;;0.50;;
16579;SDS011;8402;51.466;6.806;2024-02-23T00:42:09;1.00;;;0.90;;
16579;SDS011;8402;51.466;6.806;2024-02-23T00:44:39;1.57;;;1.10;;
16579;SDS011;8402;51.466;6.806;2024-02-23T00:47:09;5.13;;;1.07;;
16579;SDS011;8402;51.466;6.806;2024-02-23T00:49:42;1.13;;;0.90;;
16579;SDS011;8402;51.466;6.806;2024-02-23T00:52:11;2.63;;;1.27;;
16579;SDS011;8402;51.466;6.806;2024-02-23T00:54:41;3.73;;;1.10;;
16579;SDS011;8402;51.466;6.806;2024-02-23T00:57:11;1.17;;;0.97;;
16579;SDS011;8402;51.466;6.806;2024-02-23T00:59:42;0.80;;;0.67;;
16579;SDS011;8402;51.466;6.806;2024-02-23T01:02:12;0.90;;;0.70;;
16579;SDS011;8402;51.466;6.806;2024-02-23T01:04:44;2.47;;;1.10;;
16579;SDS011;8402;51.466;6.806;2024-02-23T01:07:14;2.67;;;1.23;;
16579;SDS011;8402;51.466;6.806;2024-02-23T01:09:44;1.20;;;1.00;;
16579;SDS011;8402;51.466;6.806;2024-02-23T01:12:14;2.63;;;1.50;;
16579;SDS011;8402;51.466;6.806;2024-02-23T01:14:44;3.50;;;1.50;;
16579;SDS011;8402;51.466;6.806;2024-02-23T01:17:15;2.67;;;1.43;;
16579;SDS011;8402;51.466;6.806;2024-02-23T01:19:48;4.47;;;1.40;;
16579;SDS011;8402;51.466;6.806;2024-02-23T01:22:18;7.13;;;1.60;;
16579;SDS011;8402;51.466;6.806;2024-02-23T01:24:48;2.33;;;1.30;;
16579;SDS011;8402;51.466;6.806;2024-02-23T01:27:18;4.47;;;1.40;;
16579;SDS011;8402;51.466;6.806;2024-02-23T01:29:48;4.87;;;1.27;;
16579;SDS011;8402;51.466;6.806;2024-02-23T01:32:18;1.37;;;1.00;;
16579;SDS011;8402;51.466;6.806;2024-02-23T01:34:51;2.53;;;1.00;;
16579;SDS011;8402;51.466;6.806;2024-02-23T01:37:20;1.93;;;1.10;;
16579;SDS011;8402;51.466;6.806;2024-02-23T01:39:51;3.73;;;1.23;;
16579;SDS011;8402;51.466;6.806;2024-02-23T01:42:21;7.53;;;2.10;;
16579;SDS011;8402;51.466;6.806;2024-02-23T01:44:52;6.93;;;2.47;;
16579;SDS011;8402;51.466;6.806;2024-02-23T01:47:23;7.70;;;2.03;;
16579;SDS011;8402;51.466;6.806;2024-02-23T01:49:58;8.47;;;2.07;;
16579;SDS011;8402;51.466;6.806;2024-02-23T01:52:29;6.40;;;2.07;;
16579;SDS011;8402;51.466;6.806;2024-02-23T01:54:59;3.60;;;1.67;;
16579;SDS011;8402;51.466;6.806;2024-02-23T01:57:29;3.83;;;1.63;;
16579;SDS011;8402;51.466;6.806;2024-02-23T02:00:15;2.70;;;1.37;;
16579;SDS011;8402;51.466;6.806;2024-02-23T02:02:47;3.17;;;1.20;;
16579;SDS011;8402;51.466;6.806;2024-02-23T02:05:20;8.70;;;1.30;;
16579;SDS011;8402;51.466;6.806;2024-02-23T02:07:51;2.53;;;0.97;;
16579;SDS011;8402;51.466;6.806;2024-02-23T02:10:26;2.73;;;1.30;;
16579;SDS011;8402;51.466;6.806;2024-02-23T02:13:01;5.37;;;1.30;;
16579;SDS011;8402;51.466;6.806;2024-02-23T02:15:32;2.27;;;1.00;;
16579;SDS011;8402;51.466;6.806;2024-02-23T02:18:02;3.40;;;0.93;;
16579;SDS011;8402;51.466;6.806;2024-02-23T02:20:34;2.60;;;0.80;;
16579;SDS011;8402;51.466;6.806;2024-02-23T02:23:06;4.00;;;1.07;;
16579;SDS011;8402;51.466;6.806;2024-02-23T02:25:37;4.80;;;1.33;;
16579;SDS011;8402;51.466;6.806;2024-02-23T02:28:07;6.27;;;1.23;;
16579;SDS011;8402;51.466;6.806;2024-02-23T02:30:37;2.93;;;0.90;;
16579;SDS011;8402;51.466;6.806;2024-02-23T02:33:07;2.33;;;0.77;;
16579;SDS011;8402;51.466;6.806;2024-02-23T02:35:39;1.40;;;0.80;;
16579;SDS011;8402;51.466;6.806;2024-02-23T02:38:10;2.73;;;0.80;;
16579;SDS011;8402;51.466;6.806;2024-02-23T02:40:40;2.70;;;1.37;;
16579;SDS011;8402;51.466;6.806;2024-02-23T02:43:10;3.60;;;0.80;;
16579;SDS011;8402;51.466;6.806;2024-02-23T02:45:40;2.83;;;0.80;;
16579;SDS011;8402;51.466;6.806;2024-02-23T02:48:10;3.17;;;1.30;;
16579;SDS011;8402;51.466;6.806;2024-02-23T02:50:45;3.63;;;0.80;;
16579;SDS011;8402;51.466;6.806;2024-02-23T02:53:19;2.10;;;1.00;;
16579;SDS011;8402;51.466;6.806;2024-02-23T02:55:49;4.20;;;0.93;;
16579;SDS011;8402;51.466;6.806;2024-02-23T02:58:19;1.87;;;0.83;;
16579;SDS011;8402;51.466;6.806;2024-02-23T03:00:49;3.30;;;1.07;;
16579;SDS011;8402;51.466;6.806;2024-02-23T03:03:19;4.63;;;1.77;;
16579;SDS011;8402;51.466;6.806;2024-02-23T03:05:52;2.97;;;1.10;;
16579;SDS011;8402;51.466;6.806;2024-02-23T03:08:22;3.87;;;1.30;;
16579;SDS011;8402;51.466;6.806;2024-02-23T03:10:52;2.10;;;0.90;;
16579;SDS011;8402;51.466;6.806;2024-02-23T03:13:23;2.37;;;0.80;;
16579;SDS011;8402;51.466;6.806;2024-02-23T03:15:53;2.07;;;0.87;;
16579;SDS011;8402;51.466;6.806;2024-02-23T03:18:23;2.70;;;0.90;;
16579;SDS011;8402;51.466;6.806;2024-02-23T03:20:56;5.17;;;0.90;;
16579;SDS011;8402;51.466;6.806;2024-02-23T03:23:26;2.53;;;1.00;;
16579;SDS011;8402;51.466;6.806;2024-02-23T03:25:56;2.40;;;0.63;;
16579;SDS011;8402;51.466;6.806;2024-02-23T03:28:26;2.50;;;0.73;;
16579;SDS011;8402;51.466;6.806;2024-02-23T03:30:56;1.40;;;0.60;;
16579;SDS011;8402;51.466;6.806;2024-02-23T03:33:26;1.60;;;0.70;;
16579;SDS011;8402;51.466;6.806;2024-02-23T03:35:59;3.70;;;0.83;;
16579;SDS011;8402;51.466;6.806;2024-02-23T03:38:29;1.47;;;0.50;;
16579;SDS011;8402;51.466;6.806;2024-02-23T03:41:00;1.87;;;0.90;;
16579;SDS011;8402;51.466;6.806;2024-02-23T03:43:31;3.63;;;0.60;;
16579;SDS011;8402;51.466;6.806;2024-02-23T03:46:01;2.33;;;0.47;;
16579;SDS011;8402;51.466;6.806;2024-02-23T03:48:31;4.83;;;0.70;;
16579;SDS011;8402;51.466;6.806;2024-02-23T03:51:05;1.27;;;0.43;;
16579;SDS011;8402;51.466;6.806;2024-02-23T03:53:37;4.63;;;0.63;;
16579;SDS011;8402;51.466;6.806;2024-02-23T03:56:07;1.93;;;0.60;;
16579;SDS011;8402;51.466;6.806;2024-02-23T03:58:37;2.83;;;0.60;;
16579;SDS011;8402;51.466;6.806;2024-02-23T04:01:07;3.13;;;0.73;;
16579;SDS011;8402;51.466;6.806;2024-02-23T04:03:37;6.60;;;0.70;;
16579;SDS011;8402;51.466;6.806;2024-02-23T04:06:10;5.63;;;0.80;;
16579;SDS011;8402;51.466;6.806;2024-02-23T04:08:39;2.87;;;0.70;;
16579;SDS011;8402;51.466;6.806;2024-02-23T04:11:12;1.73;;;0.63;;
16579;SDS011;8402;51.466;6.806;2024-02-23T04:13:42;2.97;;;0.80;;
16579;SDS011;8402;51.466;6.806;2024-02-23T04:16:15;6.83;;;1.17;;
16579;SDS011;8402;51.466;6.806;2024-02-23T04:18:45;6.13;;;1.40;;
16579;SDS011;8402;51.466;6.806;2024-02-23T04:21:18;8.20;;;0.90;;
16579;SDS011;8402;51.466;6.806;2024-02-23T04:23:48;1.63;;;0.90;;
16579;SDS011;8402;51.466;6.806;2024-02-23T04:26:17;6.33;;;1.07;;
16579;SDS011;8402;51.466;6.806;2024-02-23T04:28:47;1.27;;;0.63;;
16579;SDS011;8402;51.466;6.806;2024-02-23T04:31:17;4.90;;;1.10;;
16579;SDS011;8402;51.466;6.806;2024-02-23T04:33:47;5.30;;;0.90;;
16579;SDS011;8402;51.466;6.806;2024-02-23T04:36:21;3.20;;;1.00;;
16579;SDS011;8402;51.466;6.806;2024-02-23T04:38:51;7.93;;;1.30;;
16579;SDS011;8402;51.466;6.806;2024-02-23T04:41:21;5.07;;;1.30;;
16579;SDS011;8402;51.466;6.806;2024-02-23T04:43:51;5.60;;;1.33;;
16579;SDS011;8402;51.466;6.806;2024-02-23T04:46:28;6.87;;;1.30;;
16579;SDS011;8402;51.466;6.806;2024-02-23T04:48:58;5.63;;;1.23;;
16579;SDS011;8402;51.466;6.806;2024-02-23T04:51:31;3.37;;;1.03;;
16579;SDS011;8402;51.466;6.806;2024-02-23T04:54:01;4.53;;;1.37;;
16579;SDS011;8402;51.466;6.806;2024-02-23T04:56:31;2.63;;;1.00;;
16579;SDS011;8402;51.466;6.806;2024-02-23T04:59:01;5.23;;;1.20;;
16579;SDS011;8402;51.466;6.806;2024-02-23T05:01:34;4.37;;;1.23;;
16579;SDS011;8402;51.466;6.806;2024-02-23T05:04:05;4.93;;;1.33;;
16579;SDS011;8402;51.466;6.806;2024-02-23T05:06:38;5.40;;;1.70;;
16579;SDS011;8402;51.466;6.806;2024-02-23T05:09:10;6.30;;;1.20;;
16579;SDS011;8402;51.466;6.806;2024-02-23T05:11:40;5.30;;;1.17;;
16579;SDS011;8402;51.466;6.806;2024-02-23T05:14:10;4.83;;;1.10;;
16579;SDS011;8402;51.466;6.806;2024-02-23T05:16:40;5.17;;;0.80;;
16579;SDS011;8402;51.466;6.806;2024-02-23T05:19:10;5.43;;;1.57;;
16579;SDS011;8402;51.466;6.806;2024-02-23T05:21:42;4.13;;;0.60;;
16579;SDS011;8402;51.466;6.806;2024-02-23T05:24:12;3.27;;;0.73;;
16579;SDS011;8402;51.466;6.806;2024-02-23T05:26:44;1.97;;;0.57;;
16579;SDS011;8402;51.466;6.806;2024-02-23T05:29:14;1.90;;;0.80;;
16579;SDS011;8402;51.466;6.806;2024-02-23T05:31:48;5.30;;;0.47;;
16579;SDS011;8402;51.466;6.806;2024-02-23T05:34:19;3.97;;;0.80;;
16579;SDS011;8402;51.466;6.806;2024-02-23T05:36:52;3.57;;;0.70;;
16579;SDS011;8402;51.466;6.806;2024-02-23T05:39:22;4.30;;;0.70;;
16579;SDS011;8402;51.466;6.806;2024-02-23T05:41:52;2.67;;;0.57;;
16579;SDS011;8402;51.466;6.806;2024-02-23T05:44:22;3.50;;;0.77;;
16579;SDS011;8402;51.466;6.806;2024-02-23T05:46:52;1.77;;;0.40;;
16579;SDS011;8402;51.466;6.806;2024-02-23T05:49:22;1.03;;;0.60;;
16579;SDS011;8402;51.466;6.806;2024-02-23T05:51:54;2.30;;;0.60;;
16579;SDS011;8402;51.466;6.806;2024-02-23T05:54:24;2.77;;;0.80;;
16579;SDS011;8402;51.466;6.806;2024-02-23T05:56:54;2.67;;;0.60;;
16579;SDS011;8402;51.466;6.806;2024-02-23T05:59:24;4.10;;;0.80;;
16579;SDS011;8402;51.466;6.806;2024-02-23T06:01:54;3.87;;;0.60;;
16579;SDS011;8402;51.466;6.806;2024-02-23T06:04:25;2.73;;;0.60;;
16579;SDS011;8402;51.466;6.806;2024-02-23T06:06:58;1.90;;;0.70;;
16579;SDS011;8402;51.466;6.806;2024-02-23T06:09:27;5.80;;;1.27;;
16579;SDS011;8402;51.466;6.806;2024-02-23T06:11:57;2.13;;;0.80;;
16579;SDS011;8402;51.466;6.806;2024-02-23T06:14:27;6.33;;;0.83;;
16579;SDS011;8402;51.466;6.806;2024-02-23T06:16:58;3.80;;;1.03;;
16579;SDS011;8402;51.466;6.806;2024-02-23T06:19:27;6.13;;;0.80;;
16579;SDS011;8402;51.466;6.806;2024-02-23T06:22:00;6.40;;;1.00;;
16579;SDS011;8402;51.466;6.806;2024-02-23T06:24:30;5.07;;;0.90;;
16579;SDS011;8402;51.466;6.806;2024-02-23T06:27:00;7.83;;;1.07;;
16579;SDS011;8402;51.466;6.806;2024-02-23T06:29:30;4.87;;;0.67;;
16579;SDS011;8402;51.466;6.806;2024-02-23T06:32:00;10.67;;;1.20;;
16579;SDS011;8402;51.466;6.806;2024-02-23T06:34:30;4.60;;;0.77;;
16579;SDS011;8402;51.466;6.806;2024-02-23T06:37:03;4.10;;;0.80;;
16579;SDS011;8402;51.466;6.806;2024-02-23T06:39:33;3.40;;;0.60;;
16579;SDS011;8402;51.466;6.806;2024-02-23T06:42:03;5.10;;;0.67;;
16579;SDS011;8402;51.466;6.806;2024-02-23T06:44:33;1.63;;;0.60;;
16579;SDS011;8402;51.466;6.806;2024-02-23T06:47:03;5.20;;;0.60;;
16579;SDS011;8402;51.466;6.806;2024-02-23T06:49:34;5.10;;;0.67;;
16579;SDS011;8402;51.466;6.806;2024-02-23T06:52:07;6.37;;;0.80;;
16579;SDS011;8402;51.466;6.806;2024-02-23T06:54:37;1.50;;;0.70;;
16579;SDS011;8402;51.466;6.806;2024-02-23T06:57:07;6.33;;;1.07;;
16579;SDS011;8402;51.466;6.806;2024-02-23T06:59:41;4.07;;;0.77;;
16579;SDS011;8402;51.466;6.806;2024-02-23T07:02:11;5.10;;;1.03;;
16579;SDS011;8402;51.466;6.806;2024-02-23T07:04:41;2.73;;;0.90;;
16579;SDS011;8402;51.466;6.806;2024-02-23T07:07:13;3.10;;;0.73;;
16579;SDS011;8402;51.466;6.806;2024-02-23T07:09:43;2.30;;;0.87;;
16579;SDS011;8402;51.466;6.806;2024-02-23T07:12:13;1.07;;;0.57;;
16579;SDS011;8402;51.466;6.806;2024-02-23T07:14:43;1.30;;;0.60;;
16579;SDS011;8402;51.466;6.806;2024-02-23T07:17:16;5.13;;;0.97;;
16579;SDS011;8402;51.466;6.806;2024-02-23T07:19:46;3.07;;;0.70;;
16579;SDS011;8402;51.466;6.806;2024-02-23T07:22:19;2.63;;;0.40;;
16579;SDS011;8402;51.466;6.806;2024-02-23T07:24:49;3.27;;;0.53;;
16579;SDS011;8402;51.466;6.806;2024-02-23T07:27:19;3.37;;;0.90;;
16579;SDS011;8402;51.466;6.806;2024-02-23T07:29:49;3.23;;;1.03;;
16579;SDS011;8402;51.466;6.806;2024-02-23T07:32:19;2.97;;;0.53;;
16579;SDS011;8402;51.466;6.806;2024-02-23T07:34:49;4.10;;;0.70;;
16579;SDS011;8402;51.466;6.806;2024-02-23T07:37:22;2.10;;;0.80;;
16579;SDS011;8402;51.466;6.806;2024-02-23T07:39:52;9.00;;;1.30;;
16579;SDS011;8402;51.466;6.806;2024-02-23T07:42:22;4.33;;;0.70;;
16579;SDS011;8402;51.466;6.806;2024-02-23T07:44:54;2.80;;;0.73;;
16579;SDS011;8402;51.466;6.806;2024-02-23T07:47:25;2.93;;;0.57;;
16579;SDS011;8402;51.466;6.806;2024-02-23T07:49:56;1.50;;;0.80;;
16579;SDS011;8402;51.466;6.806;2024-02-23T07:52:29;3.70;;;0.83;;
16579;SDS011;8402;51.466;6.806;2024-02-23T07:54:59;0.70;;;0.40;;
16579;SDS011;8402;51.466;6.806;2024-02-23T07:57:32;4.00;;;0.90;;
16579;SDS011;8402;51.466;6.806;2024-02-23T08:00:02;2.40;;;0.50;;
16579;SDS011;8402;51.466;6.806;2024-02-23T08:02:33;1.27;;;0.47;;
16579;SDS011;8402;51.466;6.806;2024-02-23T08:05:04;1.80;;;0.60;;
16579;SDS011;8402;51.466;6.806;2024-02-23T08:07:37;2.43;;;0.90;;
16579;SDS011;8402;51.466;6.806;2024-02-23T08:10:07;1.60;;;0.57;;
16579;SDS011;8402;51.466;6.806;2024-02-23T08:12:39;2.90;;;0.77;;
16579;SDS011;8402;51.466;6.806;2024-02-23T08:15:09;3.00;;;0.70;;
16579;SDS011;8402;51.466;6.806;2024-02-23T08:17:39;3.07;;;0.67;;
16579;SDS011;8402;51.466;6.806;2024-02-23T08:20:10;5.40;;;0.83;;
16579;SDS011;8402;51.466;6.806;2024-02-23T08:22:42;3.23;;;0.90;;
16579;SDS011;8402;51.466;6.806;2024-02-23T08:25:12;7.43;;;0.90;;
16579;SDS011;8402;51.466;6.806;2024-02-23T08:27:43;1.37;;;0.53;;
16579;SDS011;8402;51.466;6.806;2024-02-23T08:30:13;5.13;;;1.00;;
16579;SDS011;8402;51.466;6.806;2024-02-23T08:32:43;1.00;;;0.40;;
16579;SDS011;8402;51.466;6.806;2024-02-23T08:35:13;0.97;;;0.40;;
16579;SDS011;8402;51.466;6.806;2024-02-23T08:37:46;0.50;;;0.30;;
16579;SDS011;8402;51.466;6.806;2024-02-23T08:40:16;2.47;;;0.70;;
16579;SDS011;8402;51.466;6.806;2024-02-23T08:42:46;3.17;;;0.67;;
16579;SDS011;8402;51.466;6.806;2024-02-23T08:45:16;3.27;;;0.73;;
16579;SDS011;8402;51.466;6.806;2024-02-23T08:47:46;3.00;;;0.53;;
16579;SDS011;8402;51.466;6.806;2024-02-23T08:50:16;2.20;;;0.90;;
16579;SDS011;8402;51.466;6.806;2024-02-23T08:52:49;4.27;;;0.60;;
16579;SDS011;8402;51.466;6.806;2024-02-23T08:55:19;2.53;;;0.80;;
16579;SDS011;8402;51.466;6.806;2024-02-23T08:57:49;2.30;;;0.70;;
16579;SDS011;8402;51.466;6.806;2024-02-23T09:00:19;2.67;;;0.80;;
16579;SDS011;8402;51.466;6.806;2024-02-23T09:02:50;3.53;;;0.53;;
16579;SDS011;8402;51.466;6.806;2024-02-23T09:05:20;4.40;;;0.77;;
16579;SDS011;8402;51.466;6.806;2024-02-23T09:07:53;4.20;;;0.90;;
16579;SDS011;8402;51.466;6.806;2024-02-23T09:10:23;1.60;;;0.77;;
16579;SDS011;8402;51.466;6.806;2024-02-23T09:12:53;1.73;;;0.30;;
16579;SDS011;8402;51.466;6.806;2024-02-23T09:15:23;0.90;;;0.30;;
16579;SDS011;8402;51.466;6.806;2024-02-23T09:17:53;4.10;;;0.60;;
16579;SDS011;8402;51.466;6.806;2024-02-23T09:20:23;2.23;;;0.60;;
16579;SDS011;8402;51.466;6.806;2024-02-23T09:22:59;3.23;;;0.70;;
16579;SDS011;8402;51.466;6.806;2024-02-23T09:25:29;2.57;;;0.67;;
16579;SDS011;8402;51.466;6.806;2024-02-23T09:27:59;2.73;;;0.70;;
16579;SDS011;8402;51.466;6.806;2024-02-23T09:30:29;2.60;;;0.53;;
16579;SDS011;8402;51.466;6.806;2024-02-23T09:32:59;1.53;;;0.50;;
16579;SDS011;8402;51.466;6.806;2024-02-23T09:35:29;4.70;;;0.90;;
16579;SDS011;8402;51.466;6.806;2024-02-23T09:38:02;2.77;;;0.50;;
16579;SDS011;8402;51.466;6.806;2024-02-23T09:40:32;3.67;;;0.60;;
16579;SDS011;8402;51.466;6.806;2024-02-23T09:43:02;3.50;;;0.70;;
16579;SDS011;8402;51.466;6.806;2024-02-23T09:45:38;2.87;;;0.90;;
16579;SDS011;8402;51.466;6.806;2024-02-23T09:48:08;2.90;;;0.40;;
16579;SDS011;8402;51.466;6.806;2024-02-23T09:50:40;3.90;;;0.43;;
16579;SDS011;8402;51.466;6.806;2024-02-23T09:53:14;6.10;;;0.80;;
16579;SDS011;8402;51.466;6.806;2024-02-23T09:55:44;2.80;;;0.57;;
16579;SDS011;8402;51.466;6.806;2024-02-23T09:58:15;8.30;;;0.80;;
16579;SDS011;8402;51.466;6.806;2024-02-23T10:00:45;3.57;;;0.60;;
16579;SDS011;8402;51.466;6.806;2024-02-23T10:03:15;2.20;;;0.67;;
16579;SDS011;8402;51.466;6.806;2024-02-23T10:05:45;4.27;;;0.80;;
16579;SDS011;8402;51.466;6.806;2024-02-23T10:08:19;3.13;;;0.87;;
16579;SDS011;8402;51.466;6.806;2024-02-23T10:10:49;7.47;;;1.43;;
16579;SDS011;8402;51.466;6.806;2024-02-23T10:13:19;3.53;;;0.73;;
16579;SDS011;8402;51.466;6.806;2024-02-23T10:15:50;1.73;;;0.50;;
16579;SDS011;8402;51.466;6.806;2024-02-23T10:18:39;4.20;;;0.50;;
16579;SDS011;8402;51.466;6.806;2024-02-23T10:21:10;6.23;;;0.60;;
16579;SDS011;8402;51.466;6.806;2024-02-23T10:23:43;2.83;;;0.50;;
16579;SDS011;8402;51.466;6.806;2024-02-23T10:26:14;0.73;;;0.40;;
16579;SDS011;8402;51.466;6.806;2024-02-23T10:28:46;4.17;;;0.53;;
16579;SDS011;8402;51.466;6.806;2024-02-23T10:31:18;4.07;;;0.80;;
16579;SDS011;8402;51.466;6.806;2024-02-23T10:33:48;2.90;;;0.50;;
16579;SDS011;8402;51.466;6.806;2024-02-23T10:36:20;1.67;;;0.57;;
16579;SDS011;8402;51.466;6.806;2024-02-23T10:38:57;3.77;;;0.60;;
16579;SDS011;8402;51.466;6.806;2024-02-23T10:41:32;2.20;;;0.27;;
16579;SDS011;8402;51.466;6.806;2024-02-23T10:44:04;1.97;;;0.30;;
16579;SDS011;8402;51.466;6.806;2024-02-23T10:46:34;3.23;;;0.70;;
16579;SDS011;8402;51.466;6.806;2024-02-23T10:49:07;4.47;;;0.53;;
16579;SDS011;8402;51.466;6.806;2024-02-23T10:51:38;2.13;;;0.60;;
16579;SDS011;8402;51.466;6.806;2024-02-23T10:54:11;0.70;;;0.40;;
16579;SDS011;8402;51.466;6.806;2024-02-23T10:56:42;1.43;;;0.40;;
16579;SDS011;8402;51.466;6.806;2024-02-23T10:59:12;5.40;;;0.53;;
16579;SDS011;8402;51.466;6.806;2024-02-23T11:01:45;6.33;;;0.90;;
16579;SDS011;8402;51.466;6.806;2024-02-23T11:04:18;6.50;;;0.90;;
16579;SDS011;8402;51.466;6.806;2024-02-23T11:06:50;1.47;;;0.37;;
16579;SDS011;8402;51.466;6.806;2024-02-23T11:09:23;1.40;;;0.60;;
16579;SDS011;8402;51.466;6.806;2024-02-23T11:11:54;2.77;;;0.70;;
16579;SDS011;8402;51.466;6.806;2024-02-23T11:14:29;2.37;;;0.50;;
16579;SDS011;8402;51.466;6.806;2024-02-23T11:17:00;3.07;;;0.90;;
16579;SDS011;8402;51.466;6.806;2024-02-23T11:19:33;4.07;;;0.70;;
16579;SDS011;8402;51.466;6.806;2024-02-23T11:22:04;3.67;;;0.63;;
16579;SDS011;8402;51.466;6.806;2024-02-23T11:24:53;3.47;;;0.80;;
16579;SDS011;8402;51.466;6.806;2024-02-23T11:27:23;6.53;;;1.13;;
16579;SDS011;8402;51.466;6.806;2024-02-23T11:29:59;5.67;;;1.30;;
16579;SDS011;8402;51.466;6.806;2024-02-23T11:32:37;6.87;;;0.67;;
16579;SDS011;8402;51.466;6.806;2024-02-23T11:35:10;4.03;;;0.53;;
16579;SDS011;8402;51.466;6.806;2024-02-23T11:37:48;3.03;;;0.60;;
16579;SDS011;8402;51.466;6.806;2024-02-23T11:40:26;3.63;;;0.73;;
16579;SDS011;8402;51.466;6.806;2024-02-23T11:42:56;2.27;;;0.80;;
16579;SDS011;8402;51.466;6.806;2024-02-23T11:45:27;3.63;;;0.50;;
16579;SDS011;8402;51.466;6.806;2024-02-23T11:47:58;3.73;;;0.50;;
16579;SDS011;8402;51.466;6.806;2024-02-23T11:50:28;2.17;;;0.50;;
16579;SDS011;8402;51.466;6.806;2024-02-23T11:52:58;3.07;;;0.70;;
16579;SDS011;8402;51.466;6.806;2024-02-23T11:55:32;4.03;;;0.57;;
16579;SDS011;8402;51.466;6.806;2024-02-23T11:58:02;1.10;;;0.50;;
16579;SDS011;8402;51.466;6.806;2024-02-23T12:00:43;1.90;;;0.43;;
16579;SDS011;8402;51.466;6.806;2024-02-23T12:03:13;5.53;;;0.80;;
16579;SDS011;8402;51.466;6.806;2024-02-23T12:05:44;3.50;;;0.73;;
16579;SDS011;8402;51.466;6.806;2024-02-23T12:08:14;8.17;;;1.10;;
16579;SDS011;8402;51.466;6.806;2024-02-23T12:10:47;6.73;;;0.70;;
16579;SDS011;8402;51.466;6.806;2024-02-23T12:13:17;3.53;;;1.00;;
16579;SDS011;8402;51.466;6.806;2024-02-23T12:15:47;3.13;;;0.63;;
16579;SDS011;8402;51.466;6.806;2024-02-23T12:18:17;3.37;;;0.90;;
16579;SDS011;8402;51.466;6.806;2024-02-23T12:20:50;3.23;;;0.70;;
16579;SDS011;8402;51.466;6.806;2024-02-23T12:23:20;5.57;;;1.30;;
16579;SDS011;8402;51.466;6.806;2024-02-23T12:25:55;6.13;;;1.20;;
16579;SDS011;8402;51.466;6.806;2024-02-23T12:28:27;14.53;;;1.50;;
16579;SDS011;8402;51.466;6.806;2024-02-23T12:31:00;7.23;;;1.37;;
16579;SDS011;8402;51.466;6.806;2024-02-23T12:33:31;7.80;;;1.30;;
16579;SDS011;8402;51.466;6.806;2024-02-23T12:36:03;7.00;;;1.03;;
16579;SDS011;8402;51.466;6.806;2024-02-23T12:38:34;7.90;;;1.23;;
16579;SDS011;8402;51.466;6.806;2024-02-23T12:41:07;1.20;;;0.60;;
16579;SDS011;8402;51.466;6.806;2024-02-23T12:43:38;10.87;;;1.20;;
16579;SDS011;8402;51.466;6.806;2024-02-23T12:46:11;17.40;;;1.47;;
16579;SDS011;8402;51.466;6.806;2024-02-23T12:48:40;6.50;;;1.00;;
16579;SDS011;8402;51.466;6.806;2024-02-23T12:51:11;12.33;;;1.20;;
16579;SDS011;8402;51.466;6.806;2024-02-23T12:53:42;5.07;;;0.70;;
16579;SDS011;8402;51.466;6.806;2024-02-23T12:56:16;12.83;;;1.77;;
16579;SDS011;8402;51.466;6.806;2024-02-23T12:58:47;4.40;;;0.90;;
16579;SDS011;8402;51.466;6.806;2024-02-23T13:01:20;5.50;;;1.47;;
16579;SDS011;8402;51.466;6.806;2024-02-23T13:03:50;4.47;;;1.30;;
16579;SDS011;8402;51.466;6.806;2024-02-23T13:06:20;10.07;;;1.20;;
16579;SDS011;8402;51.466;6.806;2024-02-23T13:08:50;3.57;;;1.20;;
16579;SDS011;8402;51.466;6.806;2024-02-23T13:11:22;4.70;;;0.90;;
16579;SDS011;8402;51.466;6.806;2024-02-23T13:13:52;10.07;;;1.37;;
16579;SDS011;8402;51.466;6.806;2024-02-23T13:16:22;5.83;;;0.90;;
16579;SDS011;8402;51.466;6.806;2024-02-23T13:18:52;8.33;;;1.50;;
16579;SDS011;8402;51.466;6.806;2024-02-23T13:21:22;9.80;;;1.47;;
16579;SDS011;8402;51.466;6.806;2024-02-23T13:23:53;4.93;;;0.90;;
16579;SDS011;8402;51.466;6.806;2024-02-23T13:26:25;4.90;;;1.10;;
16579;SDS011;8402;51.466;6.806;2024-02-23T13:28:55;11.13;;;0.93;;
16579;SDS011;8402;51.466;6.806;2024-02-23T13:31:25;3.57;;;0.80;;
16579;SDS011;8402;51.466;6.806;2024-02-23T13:33:55;8.40;;;1.50;;
16579;SDS011;8402;51.466;6.806;2024-02-23T13:36:25;11.73;;;1.40;;
16579;SDS011;8402;51.466;6.806;2024-02-23T13:38:55;8.80;;;1.43;;
16579;SDS011;8402;51.466;6.806;2024-02-23T13:41:29;18.10;;;2.03;;
16579;SDS011;8402;51.466;6.806;2024-02-23T13:44:01;27.20;;;2.13;;
16579;SDS011;8402;51.466;6.806;2024-02-23T13:46:31;6.83;;;1.33;;
16579;SDS011;8402;51.466;6.806;2024-02-23T13:49:07;11.23;;;1.53;;
16579;SDS011;8402;51.466;6.806;2024-02-23T13:51:39;3.17;;;1.13;;
16579;SDS011;8402;51.466;6.806;2024-02-23T13:54:10;8.27;;;1.40;;
16579;SDS011;8402;51.466;6.806;2024-02-23T13:56:43;13.20;;;1.83;;
16579;SDS011;8402;51.466;6.806;2024-02-23T13:59:13;12.17;;;1.97;;
16579;SDS011;8402;51.466;6.806;2024-02-23T14:01:43;9.17;;;1.47;;
16579;SDS011;8402;51.466;6.806;2024-02-23T14:04:14;4.27;;;1.00;;
16579;SDS011;8402;51.466;6.806;2024-02-23T14:06:44;2.43;;;0.60;;
16579;SDS011;8402;51.466;6.806;2024-02-23T14:09:14;9.13;;;1.10;;
16579;SDS011;8402;51.466;6.806;2024-02-23T14:11:46;9.87;;;1.20;;
16579;SDS011;8402;51.466;6.806;2024-02-23T14:14:16;28.00;;;2.17;;
16579;SDS011;8402;51.466;6.806;2024-02-23T14:16:46;15.97;;;1.93;;
16579;SDS011;8402;51.466;6.806;2024-02-23T14:19:16;8.37;;;1.10;;
16579;SDS011;8402;51.466;6.806;2024-02-23T14:21:47;6.23;;;1.00;;
16579;SDS011;8402;51.466;6.806;2024-02-23T14:24:17;10.63;;;1.57;;
16579;SDS011;8402;51.466;6.806;2024-02-23T14:26:50;3.67;;;1.00;;
16579;SDS011;8402;51.466;6.806;2024-02-23T14:29:20;10.27;;;1.10;;
16579;SDS011;8402;51.466;6.806;2024-02-23T14:31:50;4.60;;;1.00;;
16579;SDS011;8402;51.466;6.806;2024-02-23T14:34:19;4.33;;;1.07;;
16579;SDS011;8402;51.466;6.806;2024-02-23T14:36:50;9.27;;;1.10;;
16579;SDS011;8402;51.466;6.806;2024-02-23T14:39:20;5.40;;;1.10;;
16579;SDS011;8402;51.466;6.806;2024-02-23T14:41:52;5.40;;;1.23;;
16579;SDS011;8402;51.466;6.806;2024-02-23T14:44:22;6.17;;;0.80;;
16579;SDS011;8402;51.466;6.806;2024-02-23T14:46:52;5.30;;;0.90;;
16579;SDS011;8402;51.466;6.806;2024-02-23T14:49:22;4.30;;;1.17;;
16579;SDS011;8402;51.466;6.806;2024-02-23T14:51:52;9.20;;;1.03;;
16579;SDS011;8402;51.466;6.806;2024-02-23T14:54:22;4.17;;;1.00;;
16579;SDS011;8402;51.466;6.806;2024-02-23T14:56:55;6.17;;;0.87;;
16579;SDS011;8402;51.466;6.806;2024-02-23T14:59:24;5.80;;;0.70;;
16579;SDS011;8402;51.466;6.806;2024-02-23T15:01:54;7.67;;;1.07;;
16579;SDS011;8402;51.466;6.806;2024-02-23T15:04:24;4.57;;;1.10;;
16579;SDS011;8402;51.466;6.806;2024-02-23T15:06:54;6.10;;;0.70;;
16579;SDS011;8402;51.466;6.806;2024-02-23T15:09:24;4.93;;;0.90;;
16579;SDS011;8402;51.466;6.806;2024-02-23T15:11:57;2.27;;;0.80;;
16579;SDS011;8402;51.466;6.806;2024-02-23T15:14:27;1.90;;;0.77;;
16579;SDS011;8402;51.466;6.806;2024-02-23T15:16:56;2.40;;;0.43;;
16579;SDS011;8402;51.466;6.806;2024-02-23T15:19:26;3.73;;;0.80;;
16579;SDS011;8402;51.466;6.806;2024-02-23T15:21:56;2.27;;;0.50;;
16579;SDS011;8402;51.466;6.806;2024-02-23T15:24:26;1.07;;;0.43;;